• Join FlightAware (Why Join?)
  • Login
  • US Flag 
10:35AM EDT


 

Airport Tracker/Info


-or-


 

Live Flight TrackerFlight Track Log ✈ UAL481 ✈ 22-Jun-2013 ✈ PANC - KORD

Flight Track Log - Related Links

Times and Time Zones

All times are in EDT time to prevent confusion due to time zone crossing. See the UAL481 flight status page for this flight to view local times or setup timezone preferences in your user account.

Time Position Orientation Groundspeed Altitude Reporting Facility
EDT Latitude Longitude Course Direction KTS MPH feet Rate Location/Type
12:42AM 61.0000 -150.1333 101° East 250 288 7,600  Level Anchorage Center
12:43AM 60.9667 -150.0000 117° Southeast 250 288 10,100 1,800 Climbing Anchorage Center
12:44AM 60.9333 -149.8500 115° Southeast 310 357 11,300 1,500 Climbing Anchorage Center
12:45AM 60.9193 -148.4962 99° East  Level FlightAware Approximate
12:45AM 60.9000 -149.6667 110° East 350 403 13,200  Level Anchorage Center
12:46AM 60.8998 -148.2481 101° East  Level FlightAware Approximate
12:46AM 60.8667 -149.4833 110° East 360 414 15,300  Level Anchorage Center
12:47AM 60.8764 -148.0017 101° East  Level FlightAware Approximate
12:47AM 60.8167 -149.2833 117° Southeast 380 437 17,500  Level Anchorage Center
12:48AM 60.7833 -149.0667 107° East 390 449 19,400 1,740 Climbing Anchorage Center
12:49AM 60.7667 -148.8333 98° East 410 472 21,000 1,500 Climbing Anchorage Center
12:50AM 60.7667 -148.6167 90° East 410 472 22,500 1,440 Climbing Anchorage Center
12:51AM 60.7667 -148.3667 90° East 420 483 23,900 1,260 Climbing Anchorage Center
12:52AM 60.7500 -148.1167 98° East 430 495 25,100 1,200 Climbing Anchorage Center
12:53AM 60.7500 -147.8667 90° East 440 506 26,400 1,200 Climbing Anchorage Center
12:54AM 60.7333 -147.6000 97° East 460 529 27,600 1,140 Climbing Anchorage Center
12:55AM 60.7167 -147.3167 97° East 460 529 28,700 1,080 Climbing Anchorage Center
12:56AM 60.7167 -147.1000 90° East 450 518 29,800 960 Climbing Anchorage Center
12:57AM 60.7000 -146.8500 98° East 450 518 30,700 960 Climbing Anchorage Center
12:58AM 60.6833 -146.5833 97° East 470 541 31,800 960 Climbing Anchorage Center
12:59AM 60.6833 -146.3167 90° East 460 529 32,700 840 Climbing Anchorage Center
01:00AM 60.6667 -146.0500 97° East 460 529 33,600 780 Climbing Anchorage Center
01:01AM 60.6500 -145.7833 97° East 460 529 34,300 660 Climbing Anchorage Center
01:02AM 60.6333 -145.5333 98° East 460 529 35,000 300 Climbing Anchorage Center
01:03AM 60.6167 -145.2667 97° East 460 529 35,000  Level Anchorage Center
01:04AM 60.6000 -145.0000 97° East 460 529 35,000  Level Anchorage Center
01:05AM 60.5833 -144.7500 98° East 460 529 35,000  Level Anchorage Center
01:06AM 60.5667 -144.4833 97° East 460 529 35,000  Level Anchorage Center
01:07AM 60.5500 -144.2167 97° East 470 541 35,000  Level Anchorage Center
01:08AM 60.5333 -143.9500 97° East 470 541 35,000  Level Anchorage Center
01:09AM 60.5167 -143.6833 97° East 470 541 35,000  Level Anchorage Center
01:10AM 60.5000 -143.4333 98° East 460 529 35,000  Level Anchorage Center
01:11AM 60.4833 -143.1667 97° East 460 529 35,000  Level Anchorage Center
01:12AM 60.4667 -142.9167 98° East 460 529 35,000  Level Anchorage Center
01:13AM 60.4333 -142.6167 103° East 440 506 35,000  Level Anchorage Center
01:14AM 60.4167 -142.3667 98° East 450 518 35,000  Level Anchorage Center
01:15AM 60.4000 -142.1167 98° East 450 518 35,000  Level Anchorage Center
01:16AM 60.3833 -141.8667 98° East 450 518 35,000  Level Anchorage Center
01:17AM 60.3500 -141.6167 105° East 450 518 35,000  Level Anchorage Center
01:18AM 60.3333 -141.3500 97° East 450 518 35,000  Level Anchorage Center
01:19AM 60.3167 -141.1000 98° East 460 529 35,000  Level Anchorage Center
01:20AM 60.2833 -140.8500 105° East 460 529 35,000  Level Anchorage Center
01:21AM 60.2667 -140.6000 98° East 460 529 35,000  Level Anchorage Center
01:22AM 60.2333 -140.3333 104° East 460 529 35,000  Level Anchorage Center
01:23AM 60.2167 -140.0833 98° East 460 529 35,000  Level Anchorage Center
01:24AM 60.1833 -139.8333 105° East 460 529 35,000  Level Anchorage Center
01:25AM 60.1667 -139.5667 97° East 460 529 35,000  Level Anchorage Center
01:26AM 60.1333 -139.3167 105° East 460 529 35,000  Level Anchorage Center
01:27AM 60.1167 -139.0667 98° East 450 518 35,000  Level Anchorage Center
01:28AM 60.0833 -138.8167 105° East 460 529 35,000  Level Anchorage Center
01:29AM 60.0500 -138.5667 105° East 460 529 35,000  Level Anchorage Center
01:30AM 60.0333 -138.3167 97° East 460 529 35,000  Level Anchorage Center
01:31AM 60.0000 -138.0667 105° East 450 518 35,000  Level Anchorage Center
01:32AM 59.9667 -137.8333 106° East 450 518 35,000  Level Anchorage Center
01:33AM 59.9333 -137.5833 105° East 440 506 35,000  Level Anchorage Center
01:34AM 59.9167 -137.3500 98° East 440 506 35,000  Level Anchorage Center
01:35AM 59.8833 -137.1000 105° East 440 506 35,000  Level Anchorage Center
01:37AM 59.8420 -136.7691 104° East  Level FlightAware Approximate
01:44AM 59.6219 -135.1277 105° East  Level FlightAware Approximate
01:45AM 59.5887 -134.8951 106° East  Level FlightAware Approximate
01:46AM 59.5551 -134.6629 106° East  Level FlightAware Approximate
01:47AM 59.5210 -134.4312 106° East  Level FlightAware Approximate
01:48AM 59.4866 -134.2000 106° East  Level FlightAware Approximate
01:49AM 59.4517 -133.9693 106° East  Level FlightAware Approximate
01:50AM 59.4164 -133.7390 107° East  Level FlightAware Approximate
01:51AM 59.3808 -133.5092 107° East  Level FlightAware Approximate
01:52AM 59.3447 -133.2799 107° East  Level FlightAware Approximate
01:53AM 59.3082 -133.0511 107° East  Level FlightAware Approximate
01:54AM 59.2709 -132.8230 108° East  Level FlightAware Approximate
01:55AM 59.2331 -132.5956 108° East  Level FlightAware Approximate
01:56AM 59.1948 -132.3686 108° East  Level FlightAware Approximate
01:57AM 59.1562 -132.1422 108° East  Level FlightAware Approximate
01:58AM 59.1172 -131.9162 109° East  Level FlightAware Approximate
01:59AM 59.0778 -131.6908 109° East  Level FlightAware Approximate
02:00AM 59.0380 -131.4659 109° East  Level FlightAware Approximate
02:01AM 58.9978 -131.2415 109° East  Level FlightAware Approximate
02:02AM 58.9572 -131.0177 109° East  Level FlightAware Approximate
02:03AM 58.9163 -130.7944 109° East  Level FlightAware Approximate
02:04AM 58.8749 -130.5716 110° East  Level FlightAware Approximate
02:05AM 58.8332 -130.3493 110° East  Level FlightAware Approximate
02:06AM 58.7911 -130.1276 110° East  Level FlightAware Approximate
02:07AM 58.7487 -129.9064 110° East  Level FlightAware Approximate
02:08AM 58.7059 -129.6857 110° East  Level FlightAware Approximate
02:09AM 58.6627 -129.4655 111° Southeast  Level FlightAware Approximate
02:10AM 58.6192 -129.2459 111° Southeast  Level FlightAware Approximate
02:11AM 58.5755 -129.0267 110° East  Level FlightAware Approximate
02:12AM 58.5325 -128.8073 111° Southeast  Level FlightAware Approximate
02:13AM 58.4890 -128.5884 111° Southeast  Level FlightAware Approximate
02:14AM 58.4452 -128.3701 111° Southeast  Level FlightAware Approximate
02:15AM 58.4010 -128.1523 111° Southeast  Level FlightAware Approximate
02:16AM 58.3565 -127.9351 111° Southeast  Level FlightAware Approximate
02:17AM 58.3116 -127.7184 111° Southeast  Level FlightAware Approximate
02:18AM 58.2663 -127.5023 112° Southeast  Level FlightAware Approximate
02:19AM 58.2206 -127.2867 112° Southeast  Level FlightAware Approximate
02:20AM 58.1746 -127.0717 112° Southeast  Level FlightAware Approximate
02:21AM 58.1283 -126.8572 112° Southeast  Level FlightAware Approximate
02:22AM 58.0815 -126.6433 112° Southeast  Level FlightAware Approximate
02:23AM 58.0344 -126.4300 113° Southeast  Level FlightAware Approximate
02:24AM 57.9865 -126.2176 113° Southeast  Level FlightAware Approximate
02:25AM 57.9379 -126.0061 113° Southeast  Level FlightAware Approximate
02:26AM 57.8889 -125.7951 114° Southeast  Level FlightAware Approximate
02:27AM 57.8396 -125.5847 114° Southeast  Level FlightAware Approximate
02:28AM 57.7900 -125.3749 114° Southeast  Level FlightAware Approximate
02:29AM 57.7399 -125.1657 114° Southeast  Level FlightAware Approximate
02:30AM 57.6892 -124.9574 115° Southeast  Level FlightAware Approximate
02:30AM 57.6000 -124.7667 116° Southeast 470 541 35,000  Level Edmonton Center
02:31AM 57.6366 -124.7510 115° Southeast  Level FlightAware Approximate
02:31AM 57.5500 -124.5333 112° Southeast 460 529 35,000  Level Edmonton Center
02:32AM 57.5836 -124.5452 116° Southeast  Level FlightAware Approximate
02:32AM 57.5000 -124.3333 115° Southeast 450 518 35,000  Level Edmonton Center
02:33AM 57.5304 -124.3400 116° Southeast  Level FlightAware Approximate
02:33AM 57.4333 -124.1167 120° Southeast 450 518 35,000  Level Edmonton Center
02:34AM 57.4767 -124.1354 116° Southeast  Level FlightAware Approximate
02:34AM 57.3833 -123.8833 112° Southeast 450 518 35,000  Level Edmonton Center
02:35AM 57.4228 -123.9314 116° Southeast  Level FlightAware Approximate
02:35AM 57.3333 -123.7000 117° Southeast 460 529 35,000  Level Edmonton Center
02:36AM 57.2833 -123.4833 113° Southeast 450 518 35,000  Level Edmonton Center
02:37AM 57.2167 -123.2500 118° Southeast 450 518 35,000  Level Edmonton Center
02:38AM 57.1667 -123.0667 117° Southeast 450 518 35,000  Level Edmonton Center
02:39AM 57.1167 -122.8333 111° Southeast 450 518 35,000  Level Edmonton Center
02:40AM 57.0667 -122.6667 119° Southeast 460 529 35,000  Level Edmonton Center
02:41AM 57.0000 -122.4333 118° Southeast 450 518 35,000  Level Edmonton Center
02:42AM 56.9500 -122.2167 113° Southeast 450 518 35,000  Level Edmonton Center
02:43AM 56.8833 -122.0167 121° Southeast 450 518 35,000  Level Edmonton Center
02:44AM 56.8167 -121.8000 119° Southeast 450 518 35,000  Level Edmonton Center
02:45AM 56.7667 -121.5833 113° Southeast 460 529 35,000  Level Edmonton Center
02:46AM 56.7000 -121.4000 123° Southeast 450 518 35,000  Level Edmonton Center
02:47AM 56.6500 -121.1833 113° Southeast 460 529 35,000  Level Edmonton Center
02:48AM 56.5833 -120.9667 119° Southeast 460 529 35,000  Level Edmonton Center
02:49AM 56.5500 -120.8000 110° East 450 518 35,000  Level Edmonton Center
02:50AM 56.4667 -120.5667 123° Southeast 450 518 35,000  Level Edmonton Center
02:51AM 56.4333 -120.3667 107° East 450 518 35,000 240 Level Edmonton Center
02:52AM 56.3500 -120.1500 125° Southeast 450 518 35,500 600 Climbing Edmonton Center
02:53AM 56.2833 -119.9667 123° Southeast 450 518 36,300 720 Climbing Edmonton Center
02:54AM 56.2333 -119.7500 112° Southeast 450 518 37,000 300 Climbing Edmonton Center
02:55AM 56.1833 -119.5833 118° Southeast 450 518 37,000  Level Edmonton Center
02:56AM 56.1000 -119.3667 125° Southeast 440 506 37,000  Level Edmonton Center
02:57AM 56.0500 -119.1667 114° Southeast 450 518 37,000  Level Edmonton Center
02:58AM 56.0000 -118.9833 116° Southeast 450 518 37,000  Level Edmonton Center
02:59AM 55.9333 -118.7667 119° Southeast 450 518 37,000  Level Edmonton Center
03:00AM 55.8667 -118.6000 125° Southeast 450 518 37,000  Level Edmonton Center
03:01AM 55.8000 -118.3833 119° Southeast 450 518 37,000  Level Edmonton Center
03:02AM 55.7333 -118.1833 121° Southeast 450 518 37,000  Level Edmonton Center
03:03AM 55.6667 -118.0167 125° Southeast 450 518 37,000  Level Edmonton Center
03:04AM 55.6167 -117.8000 112° Southeast 450 518 37,000  Level Edmonton Center
03:05AM 55.5500 -117.6333 125° Southeast 450 518 37,000  Level Edmonton Center
03:06AM 55.4833 -117.4333 120° Southeast 450 518 37,000  Level Edmonton Center
03:07AM 55.4167 -117.2167 118° Southeast 450 518 37,000  Level Edmonton Center
03:08AM 55.3500 -117.0167 120° Southeast 460 529 37,000  Level Edmonton Center
03:09AM 55.2833 -116.8500 125° Southeast 460 529 37,000  Level Edmonton Center
03:10AM 55.2167 -116.6500 120° Southeast 460 529 37,000  Level Edmonton Center
03:11AM 55.1500 -116.4500 120° Southeast 460 529 37,000  Level Edmonton Center
03:12AM 55.0833 -116.2500 120° Southeast 460 529 37,000  Level Edmonton Center
03:13AM 55.0167 -116.0500 120° Southeast 460 529 37,000  Level Edmonton Center
03:14AM 54.9500 -115.8833 125° Southeast 460 529 37,000  Level Edmonton Center
03:15AM 54.8833 -115.6833 120° Southeast 460 529 37,000  Level Edmonton Center
03:16AM 54.8167 -115.4833 120° Southeast 460 529 37,000  Level Edmonton Center
03:17AM 54.7500 -115.2833 120° Southeast 460 529 37,000  Level Edmonton Center
03:18AM 54.6667 -115.1167 131° Southeast 460 529 37,000  Level Edmonton Center
03:19AM 54.6000 -114.9333 122° Southeast 460 529 37,000  Level Edmonton Center
03:20AM 54.5333 -114.7333 120° Southeast 460 529 37,000  Level Edmonton Center
03:21AM 54.4667 -114.5500 122° Southeast 460 529 37,000  Level Edmonton Center
03:22AM 54.4000 -114.3500 120° Southeast 460 529 37,000  Level Edmonton Center
03:23AM 54.3167 -114.1500 125° Southeast 470 541 37,000  Level Edmonton Center
03:24AM 54.2333 -113.9833 131° Southeast 470 541 37,000  Level Edmonton Center
03:25AM 54.1667 -113.7667 118° Southeast 470 541 37,000  Level Edmonton Center
03:26AM 54.1000 -113.6167 127° Southeast 470 541 37,000  Level Edmonton Center
03:27AM 54.0167 -113.4167 125° Southeast 470 541 37,000  Level Edmonton Center
03:28AM 53.9500 -113.2333 122° Southeast 470 541 37,000  Level Edmonton Center
03:29AM 53.8833 -113.0500 122° Southeast 470 541 37,000  Level Edmonton Center
03:30AM 53.7833 -112.8500 130° Southeast 470 541 37,000  Level Edmonton Center
03:31AM 53.7333 -112.6667 115° Southeast 470 541 37,000  Level Edmonton Center
03:32AM 53.6667 -112.5167 127° Southeast 460 529 37,000  Level Edmonton Center
03:33AM 53.5667 -112.3167 130° Southeast 470 541 37,000  Level Edmonton Center
03:34AM 53.5000 -112.1333 121° Southeast 470 541 37,000  Level Edmonton Center
03:35AM 53.4167 -111.9500 127° Southeast 460 529 37,000  Level Edmonton Center
03:36AM 53.3500 -111.7667 121° Southeast 460 529 37,000  Level Edmonton Center
03:37AM 53.2833 -111.5833 121° Southeast 460 529 37,000  Level Edmonton Center
03:38AM 53.2000 -111.4000 127° Southeast 460 529 37,000  Level Edmonton Center
03:39AM 53.1333 -111.2500 126° Southeast 460 529 37,000  Level Edmonton Center
03:40AM 53.0500 -111.0667 127° Southeast 460 529 37,000  Level Edmonton Center
03:41AM 52.9833 -110.9000 124° Southeast 460 529 37,000  Level Edmonton Center
03:42AM 52.9000 -110.7167 127° Southeast 460 529 37,000  Level Edmonton Center
03:43AM 52.8333 -110.5333 121° Southeast 460 529 37,000  Level Edmonton Center
03:44AM 52.7833 -110.3333 112° Southeast 460 529 37,000  Level Edmonton Center
03:45AM 52.7167 -110.1500 121° Southeast 460 529 37,000  Level Edmonton Center
03:46AM 52.6500 -109.9833 123° Southeast 470 541 37,000  Level Winnipeg Center
03:47AM 52.5833 -109.8000 121° Southeast 470 541 37,000  Level Winnipeg Center
03:48AM 52.5167 -109.6167 121° Southeast 470 541 37,000  Level Winnipeg Center
03:49AM 52.4500 -109.4333 121° Southeast 470 541 37,000  Level Winnipeg Center
03:50AM 52.3667 -109.2333 124° Southeast 480 552 37,000  Level Winnipeg Center
03:51AM 52.3000 -109.0500 121° Southeast 470 541 37,000  Level Winnipeg Center
03:52AM 52.2500 -108.8667 114° Southeast 470 541 37,000  Level Winnipeg Center
03:53AM 52.1833 -108.6833 121° Southeast 460 529 37,000  Level Winnipeg Center
03:54AM 52.1167 -108.5000 121° Southeast 460 529 37,000  Level Winnipeg Center
03:55AM 52.0500 -108.3167 121° Southeast 460 529 37,000  Level Winnipeg Center
03:56AM 51.9667 -108.1667 132° Southeast 460 529 37,000  Level Winnipeg Center
03:57AM 51.9000 -107.9833 120° Southeast 460 529 37,000  Level Winnipeg Center
03:58AM 51.8333 -107.8000 120° Southeast 460 529 37,000  Level Winnipeg Center
03:59AM 51.7667 -107.6167 120° Southeast 450 518 37,000  Level Winnipeg Center
04:00AM 51.7000 -107.4667 126° Southeast 450 518 37,000  Level Winnipeg Center
04:01AM 51.6333 -107.2833 120° Southeast 450 518 37,000  Level Winnipeg Center
04:02AM 51.5667 -107.1167 123° Southeast 450 518 37,000  Level Winnipeg Center
04:03AM 51.5000 -106.9333 120° Southeast 450 518 37,000  Level Winnipeg Center
04:04AM 51.4333 -106.7833 125° Southeast 440 506 37,000  Level Winnipeg Center
04:05AM 51.3667 -106.6167 123° Southeast 440 506 37,000  Level Winnipeg Center
04:06AM 51.3000 -106.4667 125° Southeast 440 506 37,000  Level Winnipeg Center
04:07AM 51.2333 -106.2833 120° Southeast 440 506 37,000  Level Winnipeg Center
04:08AM 51.1500 -106.1333 131° Southeast 440 506 37,000  Level Winnipeg Center
04:09AM 51.1000 -105.9667 115° Southeast 440 506 37,000  Level Winnipeg Center
04:10AM 51.0333 -105.7833 120° Southeast 440 506 37,000  Level Winnipeg Center
04:11AM 50.9667 -105.6500 128° Southeast 430 495 37,000  Level Winnipeg Center
04:12AM 50.8833 -105.4667 126° Southeast 430 495 37,000  Level Winnipeg Center
04:13AM 50.8333 -105.3167 118° Southeast 430 495 37,000 -420 Level Winnipeg Center
04:14AM 50.7667 -105.1833 128° Southeast 430 495 36,200 -960 Descending Winnipeg Center
04:15AM 50.7000 -105.0333 125° Southeast 410 472 35,100 -600 Descending Winnipeg Center
04:16AM 50.6500 -104.9000 121° Southeast 400 460 35,000 -60 Descending Winnipeg Center
04:17AM 50.5667 -104.7167 126° Southeast 400 460 35,000  Level Winnipeg Center
04:18AM 50.5167 -104.5833 120° Southeast 410 472 35,000  Level Winnipeg Center
04:19AM 50.4500 -104.4333 125° Southeast 410 472 35,000  Level Winnipeg Center
04:20AM 50.3833 -104.3000 128° Southeast 400 460 35,000  Level Winnipeg Center
04:21AM 50.3167 -104.1500 125° Southeast 400 460 35,000  Level Winnipeg Center
04:22AM 50.2667 -104.0167 120° Southeast 410 472 35,000  Level Winnipeg Center
04:23AM 50.2167 -103.8500 115° Southeast 410 472 35,000  Level Winnipeg Center
04:24AM 50.1333 -103.7000 131° Southeast 410 472 35,000  Level Winnipeg Center
04:25AM 50.0667 -103.5667 128° Southeast 410 472 35,000  Level Winnipeg Center
04:26AM 50.0167 -103.4000 115° Southeast 410 472 35,000  Level Winnipeg Center
04:27AM 49.9333 -103.2667 134° Southeast 420 483 35,000  Level Winnipeg Center
04:28AM 49.8833 -103.1167 117° Southeast 420 483 35,000  Level Winnipeg Center
04:29AM 49.8000 -102.9500 128° Southeast 420 483 35,000  Level Winnipeg Center
04:30AM 49.7500 -102.8167 120° Southeast 430 495 35,000  Level Winnipeg Center
04:31AM 49.6667 -102.6500 128° Southeast 430 495 35,000  Level Winnipeg Center
04:32AM 49.6167 -102.5167 120° Southeast 430 495 35,000  Level Winnipeg Center
04:33AM 49.5333 -102.3500 128° Southeast 430 495 35,000  Level Winnipeg Center
04:34AM 49.4667 -102.2000 124° Southeast 430 495 35,000  Level Winnipeg Center
04:35AM 49.4000 -102.0500 124° Southeast 430 495 35,000  Level Winnipeg Center
04:36AM 49.3167 -101.9000 130° Southeast 430 495 35,000  Level Winnipeg Center
04:37AM 49.2667 -101.7667 120° Southeast 430 495 35,000  Level Winnipeg Center
04:38AM 49.1833 -101.6000 127° Southeast 430 495 35,000  Level Winnipeg Center
04:39AM 49.1167 -101.4667 127° Southeast 430 495 35,000  Level Winnipeg Center
04:40AM 49.0500 -101.3333 127° Southeast 430 495 35,000 180 Level Winnipeg Center
04:41AM 48.9833 -101.1667 121° Southeast 430 495 35,400 780 Climbing Winnipeg Center
04:42AM 48.9000 -101.0333 134° Southeast 430 495 36,600 780 Climbing Winnipeg Center
04:43AM 48.8500 -100.8833 117° Southeast 430 495 37,000 240 Climbing Winnipeg Center
04:44AM 48.8217 -100.8086 120° Southeast 424 488 37,000  Level Minneapolis Center
04:45AM 48.7506 -100.6669 127° Southeast 423 487 37,000 -60 Level Minneapolis Center
04:46AM 48.6825 -100.5253 126° Southeast 419 482 36,900  Descending Minneapolis Center
04:47AM 48.6133 -100.3847 127° Southeast 418 481 37,000  Climbing Minneapolis Center
04:48AM 48.5319 -100.2175 126° Southeast 414 476 37,000 -60 Level Minneapolis Center
04:49AM 48.4603 -100.0778 128° Southeast 419 482 36,900  Descending Minneapolis Center
04:50AM 48.3917 -99.9394 127° Southeast 416 479 37,000  Climbing Minneapolis Center
04:51AM 48.3225 -99.8014 127° Southeast 414 476 36,900 -60 Descending Minneapolis Center
04:52AM 48.2519 -99.6653 128° Southeast 414 476 36,900  Level Minneapolis Center
04:53AM 48.1833 -99.5289 127° Southeast 412 474 36,900  Level Minneapolis Center
04:54AM 48.1189 -99.3869 124° Southeast 412 474 37,000  Climbing Minneapolis Center
04:55AM 48.0561 -99.2425 123° Southeast 415 478 37,000 -60 Level Minneapolis Center
04:56AM 47.9964 -99.0958 121° Southeast 415 478 36,900  Descending Minneapolis Center
04:57AM 47.9358 -98.9500 122° Southeast 414 476 37,000  Climbing Minneapolis Center
04:58AM 47.8753 -98.8039 122° Southeast 415 478 37,000 -60 Level Minneapolis Center
04:59AM 47.8150 -98.6611 122° Southeast 412 474 36,900 -60 Descending Minneapolis Center
05:00AM 47.7539 -98.5142 122° Southeast 415 478 36,900  Level Minneapolis Center
05:01AM 47.6931 -98.3711 122° Southeast 414 476 37,000  Climbing Minneapolis Center
05:02AM 47.6314 -98.2286 123° Southeast 413 475 37,000  Level Minneapolis Center
05:03AM 47.5692 -98.0856 123° Southeast 414 476 37,000  Level Minneapolis Center
05:04AM 47.5250 -97.9050 110° East 419 482 37,000  Level Minneapolis Center
05:05AM 47.4883 -97.7522 110° East 427 491 37,000  Level Minneapolis Center
05:06AM 47.4511 -97.5983 110° East 441 507 37,000  Level Minneapolis Center
05:07AM 47.4011 -97.4000 110° East 435 501 37,000 -60 Level Minneapolis Center
05:08AM 47.3578 -97.2336 111° Southeast 435 501 36,900  Descending Minneapolis Center
05:09AM 47.3144 -97.0675 111° Southeast 436 502 37,000  Climbing Minneapolis Center
05:10AM 47.2667 -96.9033 113° Southeast 436 502 37,000  Level Minneapolis Center
05:11AM 47.2208 -96.7361 112° Southeast 440 506 37,000 -60 Level Minneapolis Center
05:12AM 47.1806 -96.5664 109° East 441 507 36,900 -60 Descending Minneapolis Center
05:13AM 47.1403 -96.3950 109° East 444 511 36,900  Level Minneapolis Center
05:14AM 47.0992 -96.2217 109° East 448 516 37,000  Climbing Minneapolis Center
05:15AM 47.0456 -96.0556 115° Southeast 450 518 37,000  Level Minneapolis Center
05:16AM 46.9969 -95.8864 113° Southeast 451 519 37,000  Level Minneapolis Center
05:17AM 46.9536 -95.7303 112° Southeast 457 526 37,000 -60 Level Minneapolis Center
05:18AM 46.9050 -95.5572 112° Southeast 461 531 36,900  Descending Minneapolis Center
05:19AM 46.8628 -95.3806 109° East 463 533 37,000  Climbing Minneapolis Center
05:20AM 46.8244 -95.1986 107° East 470 541 37,000  Level Minneapolis Center
05:21AM 46.7867 -95.0144 107° East 475 547 37,000 -60 Level Minneapolis Center
05:22AM 46.7561 -94.8269 103° East 477 549 36,900  Descending Minneapolis Center
05:23AM 46.7289 -94.6381 102° East 479 551 37,000  Climbing Minneapolis Center
05:24AM 46.7044 -94.4486 101° East 478 550 36,900 -60 Descending Minneapolis Center
05:25AM 46.6786 -94.2608 101° East 477 549 36,900  Level Minneapolis Center
05:26AM 46.6492 -94.0744 103° East 476 548 37,000  Climbing Minneapolis Center
05:27AM 46.5942 -93.8611 110° East 473 544 37,000  Level Minneapolis Center
05:28AM 46.5306 -93.6956 119° Southeast 471 542 37,000  Level Minneapolis Center
05:29AM 46.4625 -93.5358 122° Southeast 469 540 37,000 -60 Level Minneapolis Center
05:30AM 46.3958 -93.3736 121° Southeast 471 542 36,900  Descending Minneapolis Center
05:31AM 46.3161 -93.2214 127° Southeast 477 549 37,000  Climbing Minneapolis Center
05:32AM 46.2225 -93.0944 137° Southeast 472 543 37,000  Level Minneapolis Center
05:33AM 46.1206 -92.9631 138° Southeast 467 537 37,000  Level Minneapolis Center
05:34AM 46.0228 -92.8378 138° Southeast 469 540 37,000  Level Minneapolis Center
05:35AM 45.9261 -92.7175 139° Southeast 465 535 37,000  Level Minneapolis Center
05:36AM 45.8297 -92.5922 138° Southeast 465 535 37,000  Level Minneapolis Center
05:37AM 45.7314 -92.4678 139° Southeast 469 540 37,000  Level Minneapolis Center
05:38AM 45.6350 -92.3464 139° Southeast 466 536 37,000  Level Minneapolis Center
05:39AM 45.5394 -92.2247 138° Southeast 462 532 37,000  Level Minneapolis Center
05:40AM 45.4436 -92.1036 138° Southeast 461 531 37,000  Level Minneapolis Center
05:41AM 45.3486 -91.9850 139° Southeast 458 527 37,000  Level Minneapolis Center
05:42AM 45.2539 -91.8656 138° Southeast 456 525 37,000  Level Minneapolis Center
05:43AM 45.1597 -91.7478 139° Southeast 452 520 37,000  Level Minneapolis Center
05:44AM 45.0658 -91.6306 139° Southeast 451 519 37,000  Level Minneapolis Center
05:45AM 44.9717 -91.5144 139° Southeast 450 518 37,000 -240 Level Minneapolis Center
05:46AM 44.8808 -91.4006 138° Southeast 444 511 36,600 -1,200 Descending Minneapolis Center
05:47AM 44.7889 -91.2872 139° Southeast 440 506 34,600 -1,800 Descending Minneapolis Center
05:48AM 44.6911 -91.1650 138° Southeast 460 529 33,000 -840 Descending Minneapolis Center
05:49AM 44.5883 -91.0428 140° Southeast 481 554 33,000 -480 Level Minneapolis Center
05:50AM 44.4908 -90.9225 139° Southeast 473 544 32,100 -900 Descending Minneapolis Center
05:51AM 44.3947 -90.8081 140° Southeast 468 539 31,200 -600 Descending Minneapolis Center
05:52AM 44.3072 -90.7017 139° Southeast 466 536 31,000 -120 Descending Minneapolis Center
05:53AM 44.2092 -90.5842 139° Southeast 466 536 31,000  Level Minneapolis Center
05:54AM 44.0994 -90.4547 140° Southeast 466 536 31,000  Level Minneapolis Center
05:55AM 44.0028 -90.3383 139° Southeast 462 532 31,000 -60 Level Minneapolis Center
05:56AM 43.9039 -90.2222 140° Southeast 464 534 30,900 -840 Descending Minneapolis Center
05:57AM 43.8044 -90.1064 140° Southeast 466 536 29,400 -1,980 Descending Minneapolis Center
05:58AM 43.7061 -89.9889 139° Southeast 469 540 27,000 -2,160 Descending Minneapolis Center
05:59AM 43.6097 -89.8775 140° Southeast 458 527 25,100 -1,800 Descending Minneapolis Center
06:00AM 43.5197 -89.7731 140° Southeast 438 504 23,400 -1,800 Descending Minneapolis Center
06:01AM 43.4319 -89.6714 140° Southeast 420 483 21,600 -1,800 Descending Minneapolis Center
06:02AM 43.3444 -89.5711 140° Southeast 415 478 19,800 -1,800 Descending Minneapolis Center
06:03AM 43.2567 -89.4719 141° Southeast 411 473 18,000 -1,740 Descending Minneapolis Center
06:04AM 43.1689 -89.3714 140° Southeast 412 474 16,400 -1,560 Descending Minneapolis Center
06:05AM 43.0722 -89.3136 156° South 388 447 14,900 -1,500 Descending Minneapolis Center